aviador You're here:

KHSV Decoded Metar

HUNTSVILLE in AL, USA
Report Time2018-07-23 10:53:00
UTC Time2018-07-23 11:42:01
Flight Rules vfr VFR
WindCalm
Visibility9999 m
Phenomena:N/A
Clouds:Overcast 030 Hf
Expected CloudBase > 400 ft AGL from Temp-Dew spread
Ceiling3,000 ft
Temp22°C (ISA +8)
Dew Point21°C (94% RH)
QNH1010 hPa
Density Alt2,021 ft
Elevation627 ft
Report Wrong Elevation
Raw Report
KHSV 231053Z 00000KT 10SM OVC030 22/21 A2984 RMK AO2 SLP096
T02170206=

Extra information for KHSV:More info

Metar Taf Metar & Taf Last 4 Metars F.Rules Stats Wind Profile Meteogram Temp Stats Airport Information Weather charts Add Link Nearby VenuesMetar ALERT Operation Metar Decoded Social comments

AIRNAV info for KHSV